KPDK/PDK METAR and TAF weather

Enter ICAO airport designator
Station Type Date Time Source
KPDK METAR 2020/01/19 22:53 UTC NOAA

KPDK 192253Z 32012KT 10SM CLR 06/M07 A3015 RMK AO2 SLP217 T00561067


Station Type Date Time Source
KPDK Decoded METAR 2020/01/19 22:53 UTC NOAA

ATLANTA DE KALB-PEACHTREE, GA, United States (KPDK) 33-53N 084-18W 302M
Jan 19, 2020 - 05:53 PM EST / 2020.01.19 2253 UTC
Wind: from the NW (320 degrees) at 14 MPH (12 KT):0
Visibility: 10 mile(s):0
Sky conditions: clear
Temperature: 42.1 F (5.6 C)
Dew Point: 19.9 F (-6.7 C)
Relative Humidity: 40%
Pressure (altimeter): 30.15 in. Hg (1020 hPa)
ob: KPDK 192253Z 32012KT 10SM CLR 06/M07 A3015 RMK AO2 SLP217 T00561067
cycle: 23

Station Type Date Time Source
KPDK TAF 2020/01/19 18:33 UTC NOAA

TAF KPDK 191730Z 1918/2018 32016G24KT P6SM SKC
FM200400 32012G20KT P6SM SKC

Example: see airport list